sensor_id;sensor_type;location;lat;lon;timestamp;P1;durP1;ratioP1;P2;durP2;ratioP2
58581;SDS011;44361;51.476;5.700;2023-05-08T00:01:06;35.05;;;22.73;;
58581;SDS011;44361;51.476;5.700;2023-05-08T00:03:31;31.45;;;22.25;;
58581;SDS011;44361;51.476;5.700;2023-05-08T00:05:57;34.38;;;21.88;;
58581;SDS011;44361;51.476;5.700;2023-05-08T00:08:23;32.92;;;22.17;;
58581;SDS011;44361;51.476;5.700;2023-05-08T00:10:48;32.47;;;20.95;;
58581;SDS011;44361;51.476;5.700;2023-05-08T00:13:14;33.33;;;21.42;;
58581;SDS011;44361;51.476;5.700;2023-05-08T00:15:39;37.03;;;21.55;;
58581;SDS011;44361;51.476;5.700;2023-05-08T00:18:05;32.65;;;21.85;;
58581;SDS011;44361;51.476;5.700;2023-05-08T00:20:31;32.72;;;21.52;;
58581;SDS011;44361;51.476;5.700;2023-05-08T00:22:58;33.53;;;22.00;;
58581;SDS011;44361;51.476;5.700;2023-05-08T00:25:23;32.80;;;22.17;;
58581;SDS011;44361;51.476;5.700;2023-05-08T00:27:49;31.98;;;20.42;;
58581;SDS011;44361;51.476;5.700;2023-05-08T00:30:15;34.33;;;21.13;;
58581;SDS011;44361;51.476;5.700;2023-05-08T00:32:40;30.60;;;20.35;;
58581;SDS011;44361;51.476;5.700;2023-05-08T00:35:06;36.20;;;21.20;;
58581;SDS011;44361;51.476;5.700;2023-05-08T00:37:32;33.45;;;21.73;;
58581;SDS011;44361;51.476;5.700;2023-05-08T00:39:57;31.70;;;20.63;;
58581;SDS011;44361;51.476;5.700;2023-05-08T00:42:23;28.77;;;20.00;;
58581;SDS011;44361;51.476;5.700;2023-05-08T00:44:48;31.92;;;19.58;;
58581;SDS011;44361;51.476;5.700;2023-05-08T00:47:14;33.33;;;20.98;;
58581;SDS011;44361;51.476;5.700;2023-05-08T00:49:39;30.85;;;20.85;;
58581;SDS011;44361;51.476;5.700;2023-05-08T00:52:06;36.28;;;21.08;;
58581;SDS011;44361;51.476;5.700;2023-05-08T00:54:35;34.60;;;21.08;;
58581;SDS011;44361;51.476;5.700;2023-05-08T00:57:02;29.33;;;20.35;;
58581;SDS011;44361;51.476;5.700;2023-05-08T00:59:30;35.90;;;21.70;;
58581;SDS011;44361;51.476;5.700;2023-05-08T01:01:57;34.58;;;22.15;;
58581;SDS011;44361;51.476;5.700;2023-05-08T01:04:24;36.03;;;21.13;;
58581;SDS011;44361;51.476;5.700;2023-05-08T01:06:51;38.08;;;23.02;;
58581;SDS011;44361;51.476;5.700;2023-05-08T01:09:16;35.28;;;22.65;;
58581;SDS011;44361;51.476;5.700;2023-05-08T01:11:53;35.50;;;22.90;;
58581;SDS011;44361;51.476;5.700;2023-05-08T01:20:18;34.17;;;21.55;;
58581;SDS011;44361;51.476;5.700;2023-05-08T01:25:45;39.00;;;23.30;;
58581;SDS011;44361;51.476;5.700;2023-05-08T01:28:35;37.70;;;23.70;;
58581;SDS011;44361;51.476;5.700;2023-05-08T01:33:39;33.70;;;21.02;;
58581;SDS011;44361;51.476;5.700;2023-05-08T01:41:48;35.28;;;22.25;;
58581;SDS011;44361;51.476;5.700;2023-05-08T01:44:21;32.88;;;21.60;;
58581;SDS011;44361;51.476;5.700;2023-05-08T01:46:52;38.30;;;22.65;;
58581;SDS011;44361;51.476;5.700;2023-05-08T01:49:25;34.55;;;21.05;;
58581;SDS011;44361;51.476;5.700;2023-05-08T01:52:02;35.75;;;21.67;;
58581;SDS011;44361;51.476;5.700;2023-05-08T01:54:54;34.40;;;21.20;;
58581;SDS011;44361;51.476;5.700;2023-05-08T01:57:23;36.22;;;22.38;;
58581;SDS011;44361;51.476;5.700;2023-05-08T01:59:52;36.30;;;21.45;;
58581;SDS011;44361;51.476;5.700;2023-05-08T02:02:20;37.03;;;21.13;;
58581;SDS011;44361;51.476;5.700;2023-05-08T02:04:46;32.42;;;21.27;;
58581;SDS011;44361;51.476;5.700;2023-05-08T02:07:13;33.13;;;21.65;;
58581;SDS011;44361;51.476;5.700;2023-05-08T02:09:40;34.85;;;22.45;;
58581;SDS011;44361;51.476;5.700;2023-05-08T02:12:07;37.35;;;22.80;;
58581;SDS011;44361;51.476;5.700;2023-05-08T02:14:34;36.33;;;23.00;;
58581;SDS011;44361;51.476;5.700;2023-05-08T02:17:01;34.72;;;22.23;;
58581;SDS011;44361;51.476;5.700;2023-05-08T02:19:28;39.17;;;22.25;;
58581;SDS011;44361;51.476;5.700;2023-05-08T02:21:55;34.95;;;21.15;;
58581;SDS011;44361;51.476;5.700;2023-05-08T02:24:24;34.58;;;22.05;;
58581;SDS011;44361;51.476;5.700;2023-05-08T02:26:50;37.50;;;22.30;;
58581;SDS011;44361;51.476;5.700;2023-05-08T02:29:18;35.05;;;21.55;;
58581;SDS011;44361;51.476;5.700;2023-05-08T02:31:45;40.20;;;22.20;;
58581;SDS011;44361;51.476;5.700;2023-05-08T02:34:12;38.40;;;23.75;;
58581;SDS011;44361;51.476;5.700;2023-05-08T02:36:39;34.00;;;21.55;;
58581;SDS011;44361;51.476;5.700;2023-05-08T02:39:06;37.92;;;23.63;;
58581;SDS011;44361;51.476;5.700;2023-05-08T02:41:36;35.08;;;22.25;;
58581;SDS011;44361;51.476;5.700;2023-05-08T02:44:02;43.85;;;24.25;;
58581;SDS011;44361;51.476;5.700;2023-05-08T02:48:55;34.85;;;22.23;;
58581;SDS011;44361;51.476;5.700;2023-05-08T02:54:13;36.75;;;23.40;;
58581;SDS011;44361;51.476;5.700;2023-05-08T02:57:42;34.38;;;21.02;;
58581;SDS011;44361;51.476;5.700;2023-05-08T02:59:52;37.70;;;21.98;;
58581;SDS011;44361;51.476;5.700;2023-05-08T03:05:15;43.75;;;24.42;;
58581;SDS011;44361;51.476;5.700;2023-05-08T03:07:42;39.85;;;23.60;;
58581;SDS011;44361;51.476;5.700;2023-05-08T03:10:11;39.42;;;23.42;;
58581;SDS011;44361;51.476;5.700;2023-05-08T03:12:42;38.85;;;23.17;;
58581;SDS011;44361;51.476;5.700;2023-05-08T03:15:15;39.28;;;24.15;;
58581;SDS011;44361;51.476;5.700;2023-05-08T03:17:45;44.17;;;23.98;;
58581;SDS011;44361;51.476;5.700;2023-05-08T03:20:13;39.53;;;24.38;;
58581;SDS011;44361;51.476;5.700;2023-05-08T03:22:41;43.65;;;23.17;;
58581;SDS011;44361;51.476;5.700;2023-05-08T03:25:08;40.30;;;24.35;;
58581;SDS011;44361;51.476;5.700;2023-05-08T03:27:35;41.50;;;25.05;;
58581;SDS011;44361;51.476;5.700;2023-05-08T03:30:01;42.05;;;24.75;;
58581;SDS011;44361;51.476;5.700;2023-05-08T03:32:29;40.80;;;24.10;;
58581;SDS011;44361;51.476;5.700;2023-05-08T03:34:57;41.65;;;24.45;;
58581;SDS011;44361;51.476;5.700;2023-05-08T03:37:27;40.00;;;24.63;;
58581;SDS011;44361;51.476;5.700;2023-05-08T03:39:54;41.05;;;24.38;;
58581;SDS011;44361;51.476;5.700;2023-05-08T03:42:20;40.67;;;23.98;;
58581;SDS011;44361;51.476;5.700;2023-05-08T03:44:48;43.60;;;24.67;;
58581;SDS011;44361;51.476;5.700;2023-05-08T03:47:16;42.58;;;24.63;;
58581;SDS011;44361;51.476;5.700;2023-05-08T03:49:47;37.20;;;23.10;;
58581;SDS011;44361;51.476;5.700;2023-05-08T03:52:13;42.40;;;23.85;;
58581;SDS011;44361;51.476;5.700;2023-05-08T03:54:40;40.80;;;24.42;;
58581;SDS011;44361;51.476;5.700;2023-05-08T03:57:05;39.97;;;23.65;;
58581;SDS011;44361;51.476;5.700;2023-05-08T04:02:08;38.38;;;22.75;;
58581;SDS011;44361;51.476;5.700;2023-05-08T04:04:39;39.15;;;22.77;;
58581;SDS011;44361;51.476;5.700;2023-05-08T04:10:15;44.90;;;25.70;;
58581;SDS011;44361;51.476;5.700;2023-05-08T04:13:08;42.72;;;24.73;;
58581;SDS011;44361;51.476;5.700;2023-05-08T04:15:37;39.83;;;24.27;;
58581;SDS011;44361;51.476;5.700;2023-05-08T04:18:11;38.58;;;23.27;;
58581;SDS011;44361;51.476;5.700;2023-05-08T04:20:40;39.58;;;23.10;;
58581;SDS011;44361;51.476;5.700;2023-05-08T04:23:10;40.03;;;22.75;;
58581;SDS011;44361;51.476;5.700;2023-05-08T04:25:40;41.88;;;24.23;;
58581;SDS011;44361;51.476;5.700;2023-05-08T04:28:08;40.28;;;24.27;;
58581;SDS011;44361;51.476;5.700;2023-05-08T04:30:35;39.22;;;23.77;;
58581;SDS011;44361;51.476;5.700;2023-05-08T04:33:01;36.97;;;23.95;;
58581;SDS011;44361;51.476;5.700;2023-05-08T04:35:28;46.28;;;26.83;;
58581;SDS011;44361;51.476;5.700;2023-05-08T04:37:55;48.90;;;26.58;;
58581;SDS011;44361;51.476;5.700;2023-05-08T04:40:20;50.58;;;27.02;;
58581;SDS011;44361;51.476;5.700;2023-05-08T04:42:46;47.78;;;27.58;;
58581;SDS011;44361;51.476;5.700;2023-05-08T04:45:11;49.75;;;27.65;;
58581;SDS011;44361;51.476;5.700;2023-05-08T04:47:37;49.00;;;27.52;;
58581;SDS011;44361;51.476;5.700;2023-05-08T04:50:03;48.05;;;28.20;;
58581;SDS011;44361;51.476;5.700;2023-05-08T04:52:29;44.45;;;25.67;;
58581;SDS011;44361;51.476;5.700;2023-05-08T04:54:55;46.85;;;27.05;;
58581;SDS011;44361;51.476;5.700;2023-05-08T04:57:20;48.85;;;26.83;;
58581;SDS011;44361;51.476;5.700;2023-05-08T04:59:46;46.45;;;27.40;;
58581;SDS011;44361;51.476;5.700;2023-05-08T05:02:11;48.33;;;28.50;;
58581;SDS011;44361;51.476;5.700;2023-05-08T05:04:37;46.67;;;27.67;;
58581;SDS011;44361;51.476;5.700;2023-05-08T05:07:02;49.40;;;27.75;;
58581;SDS011;44361;51.476;5.700;2023-05-08T05:09:28;48.70;;;29.00;;
58581;SDS011;44361;51.476;5.700;2023-05-08T05:11:54;50.47;;;29.52;;
58581;SDS011;44361;51.476;5.700;2023-05-08T05:14:20;49.85;;;29.02;;
58581;SDS011;44361;51.476;5.700;2023-05-08T05:16:45;54.53;;;30.63;;
58581;SDS011;44361;51.476;5.700;2023-05-08T05:19:11;47.00;;;27.77;;
58581;SDS011;44361;51.476;5.700;2023-05-08T05:21:37;55.78;;;30.17;;
58581;SDS011;44361;51.476;5.700;2023-05-08T05:24:03;46.15;;;29.77;;
58581;SDS011;44361;51.476;5.700;2023-05-08T05:26:29;47.92;;;29.80;;
58581;SDS011;44361;51.476;5.700;2023-05-08T05:28:55;47.22;;;30.45;;
58581;SDS011;44361;51.476;5.700;2023-05-08T05:31:20;47.10;;;29.15;;
58581;SDS011;44361;51.476;5.700;2023-05-08T05:33:46;48.05;;;30.90;;
58581;SDS011;44361;51.476;5.700;2023-05-08T05:36:11;53.33;;;31.20;;
58581;SDS011;44361;51.476;5.700;2023-05-08T05:38:37;50.08;;;30.48;;
58581;SDS011;44361;51.476;5.700;2023-05-08T05:41:02;46.28;;;29.30;;
58581;SDS011;44361;51.476;5.700;2023-05-08T05:43:28;47.08;;;29.40;;
58581;SDS011;44361;51.476;5.700;2023-05-08T05:45:53;48.30;;;30.50;;
58581;SDS011;44361;51.476;5.700;2023-05-08T05:48:22;48.05;;;30.25;;
58581;SDS011;44361;51.476;5.700;2023-05-08T05:50:48;47.75;;;29.90;;
58581;SDS011;44361;51.476;5.700;2023-05-08T05:53:13;47.83;;;30.98;;
58581;SDS011;44361;51.476;5.700;2023-05-08T05:55:39;50.20;;;32.33;;
58581;SDS011;44361;51.476;5.700;2023-05-08T05:58:05;50.78;;;30.83;;
58581;SDS011;44361;51.476;5.700;2023-05-08T06:00:31;47.10;;;29.83;;
58581;SDS011;44361;51.476;5.700;2023-05-08T06:02:56;48.05;;;31.45;;
58581;SDS011;44361;51.476;5.700;2023-05-08T06:05:22;43.80;;;29.85;;
58581;SDS011;44361;51.476;5.700;2023-05-08T06:07:48;47.80;;;31.45;;
58581;SDS011;44361;51.476;5.700;2023-05-08T06:10:13;46.58;;;31.02;;
58581;SDS011;44361;51.476;5.700;2023-05-08T06:12:39;46.17;;;30.33;;
58581;SDS011;44361;51.476;5.700;2023-05-08T06:15:05;46.42;;;29.77;;
58581;SDS011;44361;51.476;5.700;2023-05-08T06:17:31;54.95;;;32.15;;
58581;SDS011;44361;51.476;5.700;2023-05-08T06:19:57;54.67;;;34.47;;
58581;SDS011;44361;51.476;5.700;2023-05-08T06:22:23;55.08;;;33.92;;
58581;SDS011;44361;51.476;5.700;2023-05-08T06:24:49;54.10;;;33.30;;
58581;SDS011;44361;51.476;5.700;2023-05-08T06:27:18;54.53;;;33.97;;
58581;SDS011;44361;51.476;5.700;2023-05-08T06:29:48;53.88;;;34.85;;
58581;SDS011;44361;51.476;5.700;2023-05-08T06:32:16;50.78;;;33.47;;
58581;SDS011;44361;51.476;5.700;2023-05-08T06:34:42;54.75;;;33.65;;
58581;SDS011;44361;51.476;5.700;2023-05-08T06:37:08;50.28;;;33.08;;
58581;SDS011;44361;51.476;5.700;2023-05-08T06:39:33;47.58;;;32.42;;
58581;SDS011;44361;51.476;5.700;2023-05-08T06:41:59;52.58;;;32.42;;
58581;SDS011;44361;51.476;5.700;2023-05-08T06:44:24;48.25;;;32.00;;
58581;SDS011;44361;51.476;5.700;2023-05-08T06:46:50;47.03;;;32.65;;
58581;SDS011;44361;51.476;5.700;2023-05-08T06:49:15;47.92;;;31.15;;
58581;SDS011;44361;51.476;5.700;2023-05-08T06:51:41;49.67;;;34.42;;
58581;SDS011;44361;51.476;5.700;2023-05-08T06:54:06;48.95;;;32.47;;
58581;SDS011;44361;51.476;5.700;2023-05-08T06:56:32;49.55;;;33.05;;
58581;SDS011;44361;51.476;5.700;2023-05-08T06:58:59;52.28;;;34.17;;
58581;SDS011;44361;51.476;5.700;2023-05-08T07:01:24;55.53;;;33.97;;
58581;SDS011;44361;51.476;5.700;2023-05-08T07:03:50;47.55;;;32.40;;
58581;SDS011;44361;51.476;5.700;2023-05-08T07:06:16;54.30;;;35.08;;
58581;SDS011;44361;51.476;5.700;2023-05-08T07:08:41;51.00;;;34.50;;
58581;SDS011;44361;51.476;5.700;2023-05-08T07:11:07;54.78;;;36.00;;
58581;SDS011;44361;51.476;5.700;2023-05-08T07:13:34;49.90;;;34.63;;
58581;SDS011;44361;51.476;5.700;2023-05-08T07:15:59;52.85;;;34.60;;
58581;SDS011;44361;51.476;5.700;2023-05-08T07:18:25;48.33;;;33.30;;
58581;SDS011;44361;51.476;5.700;2023-05-08T07:20:51;48.60;;;33.10;;
58581;SDS011;44361;51.476;5.700;2023-05-08T07:23:16;49.40;;;33.97;;
58581;SDS011;44361;51.476;5.700;2023-05-08T07:25:42;46.30;;;31.38;;
58581;SDS011;44361;51.476;5.700;2023-05-08T07:28:08;46.08;;;31.80;;
58581;SDS011;44361;51.476;5.700;2023-05-08T07:30:34;42.33;;;30.63;;
58581;SDS011;44361;51.476;5.700;2023-05-08T07:33:00;44.60;;;30.23;;
58581;SDS011;44361;51.476;5.700;2023-05-08T07:35:25;41.22;;;27.73;;
58581;SDS011;44361;51.476;5.700;2023-05-08T07:37:51;40.00;;;27.45;;
58581;SDS011;44361;51.476;5.700;2023-05-08T07:40:17;42.80;;;28.98;;
58581;SDS011;44361;51.476;5.700;2023-05-08T07:42:43;40.75;;;28.10;;
58581;SDS011;44361;51.476;5.700;2023-05-08T07:45:09;37.63;;;26.33;;
58581;SDS011;44361;51.476;5.700;2023-05-08T07:47:36;40.08;;;27.65;;
58581;SDS011;44361;51.476;5.700;2023-05-08T07:50:02;38.67;;;27.33;;
58581;SDS011;44361;51.476;5.700;2023-05-08T07:52:28;38.78;;;26.20;;
58581;SDS011;44361;51.476;5.700;2023-05-08T07:54:53;39.05;;;26.92;;
58581;SDS011;44361;51.476;5.700;2023-05-08T07:57:19;35.20;;;24.55;;
58581;SDS011;44361;51.476;5.700;2023-05-08T07:59:44;36.85;;;25.00;;
58581;SDS011;44361;51.476;5.700;2023-05-08T08:02:10;36.30;;;24.95;;
58581;SDS011;44361;51.476;5.700;2023-05-08T08:04:35;35.85;;;25.45;;
58581;SDS011;44361;51.476;5.700;2023-05-08T08:07:01;34.08;;;23.98;;
58581;SDS011;44361;51.476;5.700;2023-05-08T08:09:26;32.63;;;23.80;;
58581;SDS011;44361;51.476;5.700;2023-05-08T08:11:52;34.35;;;23.70;;
58581;SDS011;44361;51.476;5.700;2023-05-08T08:14:18;32.33;;;23.13;;
58581;SDS011;44361;51.476;5.700;2023-05-08T08:16:43;33.03;;;22.77;;
58581;SDS011;44361;51.476;5.700;2023-05-08T08:19:09;29.27;;;20.80;;
58581;SDS011;44361;51.476;5.700;2023-05-08T08:21:34;29.25;;;20.58;;
58581;SDS011;44361;51.476;5.700;2023-05-08T08:24:01;31.67;;;22.33;;
58581;SDS011;44361;51.476;5.700;2023-05-08T08:26:26;30.67;;;21.83;;
58581;SDS011;44361;51.476;5.700;2023-05-08T08:28:52;34.05;;;22.27;;
58581;SDS011;44361;51.476;5.700;2023-05-08T08:31:17;33.35;;;23.52;;
58581;SDS011;44361;51.476;5.700;2023-05-08T08:33:44;31.05;;;22.52;;
58581;SDS011;44361;51.476;5.700;2023-05-08T08:36:13;31.48;;;21.95;;
58581;SDS011;44361;51.476;5.700;2023-05-08T08:38:39;32.10;;;21.38;;
58581;SDS011;44361;51.476;5.700;2023-05-08T08:41:05;32.30;;;22.10;;
58581;SDS011;44361;51.476;5.700;2023-05-08T08:43:30;30.27;;;22.15;;
58581;SDS011;44361;51.476;5.700;2023-05-08T08:45:56;31.25;;;21.27;;
58581;SDS011;44361;51.476;5.700;2023-05-08T08:48:23;31.30;;;21.73;;
58581;SDS011;44361;51.476;5.700;2023-05-08T08:50:52;33.08;;;21.95;;
58581;SDS011;44361;51.476;5.700;2023-05-08T08:53:27;34.07;;;22.90;;
58581;SDS011;44361;51.476;5.700;2023-05-08T08:55:58;35.42;;;22.90;;
58581;SDS011;44361;51.476;5.700;2023-05-08T08:58:30;31.25;;;22.02;;
58581;SDS011;44361;51.476;5.700;2023-05-08T09:01:12;31.75;;;21.92;;
58581;SDS011;44361;51.476;5.700;2023-05-08T09:03:40;31.77;;;21.42;;
58581;SDS011;44361;51.476;5.700;2023-05-08T09:06:06;32.28;;;21.63;;
58581;SDS011;44361;51.476;5.700;2023-05-08T09:08:32;27.17;;;20.13;;
58581;SDS011;44361;51.476;5.700;2023-05-08T09:10:58;29.88;;;20.95;;
58581;SDS011;44361;51.476;5.700;2023-05-08T09:13:27;29.80;;;20.67;;
58581;SDS011;44361;51.476;5.700;2023-05-08T09:15:53;29.42;;;21.13;;
58581;SDS011;44361;51.476;5.700;2023-05-08T09:18:18;28.20;;;21.25;;
58581;SDS011;44361;51.476;5.700;2023-05-08T09:20:44;28.83;;;20.15;;
58581;SDS011;44361;51.476;5.700;2023-05-08T09:23:10;29.00;;;21.33;;
58581;SDS011;44361;51.476;5.700;2023-05-08T09:25:42;30.00;;;21.58;;
58581;SDS011;44361;51.476;5.700;2023-05-08T09:28:15;32.85;;;22.35;;
58581;SDS011;44361;51.476;5.700;2023-05-08T09:33:22;31.75;;;22.92;;
58581;SDS011;44361;51.476;5.700;2023-05-08T09:35:49;30.08;;;21.15;;
58581;SDS011;44361;51.476;5.700;2023-05-08T09:38:34;33.47;;;23.52;;
58581;SDS011;44361;51.476;5.700;2023-05-08T09:41:11;29.48;;;21.33;;
58581;SDS011;44361;51.476;5.700;2023-05-08T09:43:41;30.25;;;20.52;;
58581;SDS011;44361;51.476;5.700;2023-05-08T09:46:23;28.30;;;19.80;;
58581;SDS011;44361;51.476;5.700;2023-05-08T09:48:51;25.27;;;18.38;;
58581;SDS011;44361;51.476;5.700;2023-05-08T09:51:18;27.13;;;19.02;;
58581;SDS011;44361;51.476;5.700;2023-05-08T09:53:44;21.92;;;17.08;;
58581;SDS011;44361;51.476;5.700;2023-05-08T09:56:10;22.50;;;17.17;;
58581;SDS011;44361;51.476;5.700;2023-05-08T09:58:43;21.77;;;16.27;;
58581;SDS011;44361;51.476;5.700;2023-05-08T10:01:28;22.02;;;15.93;;
58581;SDS011;44361;51.476;5.700;2023-05-08T10:03:59;25.58;;;18.45;;
58581;SDS011;44361;51.476;5.700;2023-05-08T10:06:25;25.45;;;18.67;;
58581;SDS011;44361;51.476;5.700;2023-05-08T10:09:05;26.00;;;18.80;;
58581;SDS011;44361;51.476;5.700;2023-05-08T10:11:34;25.77;;;18.25;;
58581;SDS011;44361;51.476;5.700;2023-05-08T10:14:00;23.50;;;17.95;;
58581;SDS011;44361;51.476;5.700;2023-05-08T10:16:26;25.33;;;17.73;;
58581;SDS011;44361;51.476;5.700;2023-05-08T10:18:54;22.30;;;17.30;;
58581;SDS011;44361;51.476;5.700;2023-05-08T10:21:27;25.25;;;18.67;;
58581;SDS011;44361;51.476;5.700;2023-05-08T10:23:55;24.30;;;16.92;;
58581;SDS011;44361;51.476;5.700;2023-05-08T10:26:26;26.88;;;18.52;;
58581;SDS011;44361;51.476;5.700;2023-05-08T10:28:56;24.75;;;17.65;;
58581;SDS011;44361;51.476;5.700;2023-05-08T10:31:45;26.42;;;18.55;;
58581;SDS011;44361;51.476;5.700;2023-05-08T10:34:12;26.05;;;18.75;;
58581;SDS011;44361;51.476;5.700;2023-05-08T10:36:42;24.67;;;19.08;;
58581;SDS011;44361;51.476;5.700;2023-05-08T10:39:10;26.38;;;18.88;;
58581;SDS011;44361;51.476;5.700;2023-05-08T10:41:36;29.80;;;19.50;;
58581;SDS011;44361;51.476;5.700;2023-05-08T10:44:02;24.40;;;16.75;;
58581;SDS011;44361;51.476;5.700;2023-05-08T10:46:31;22.65;;;17.10;;
58581;SDS011;44361;51.476;5.700;2023-05-08T10:51:54;27.48;;;19.60;;
58581;SDS011;44361;51.476;5.700;2023-05-08T10:57:28;23.67;;;17.63;;
58581;SDS011;44361;51.476;5.700;2023-05-08T10:59:55;24.13;;;17.35;;
58581;SDS011;44361;51.476;5.700;2023-05-08T11:02:27;23.55;;;17.10;;
58581;SDS011;44361;51.476;5.700;2023-05-08T11:05:13;25.38;;;18.42;;
58581;SDS011;44361;51.476;5.700;2023-05-08T11:07:56;22.83;;;16.77;;
58581;SDS011;44361;51.476;5.700;2023-05-08T11:10:28;22.17;;;16.58;;
58581;SDS011;44361;51.476;5.700;2023-05-08T11:12:56;25.00;;;17.17;;
58581;SDS011;44361;51.476;5.700;2023-05-08T11:15:35;25.20;;;17.80;;
58581;SDS011;44361;51.476;5.700;2023-05-08T11:18:02;25.50;;;19.00;;
58581;SDS011;44361;51.476;5.700;2023-05-08T11:20:39;27.45;;;19.15;;
58581;SDS011;44361;51.476;5.700;2023-05-08T11:23:22;24.42;;;18.35;;
58581;SDS011;44361;51.476;5.700;2023-05-08T11:26:02;26.58;;;17.67;;
58581;SDS011;44361;51.476;5.700;2023-05-08T11:28:32;24.70;;;16.92;;
58581;SDS011;44361;51.476;5.700;2023-05-08T11:31:02;29.75;;;18.85;;
58581;SDS011;44361;51.476;5.700;2023-05-08T11:33:32;28.13;;;19.63;;
58581;SDS011;44361;51.476;5.700;2023-05-08T11:36:14;26.67;;;18.63;;
58581;SDS011;44361;51.476;5.700;2023-05-08T11:38:42;26.23;;;19.70;;
58581;SDS011;44361;51.476;5.700;2023-05-08T11:41:08;29.20;;;19.77;;
58581;SDS011;44361;51.476;5.700;2023-05-08T11:43:45;25.35;;;18.65;;
58581;SDS011;44361;51.476;5.700;2023-05-08T11:49:04;27.60;;;19.08;;
58581;SDS011;44361;51.476;5.700;2023-05-08T11:51:30;28.83;;;19.48;;
58581;SDS011;44361;51.476;5.700;2023-05-08T11:53:57;28.73;;;20.88;;
58581;SDS011;44361;51.476;5.700;2023-05-08T11:56:24;29.00;;;20.50;;
58581;SDS011;44361;51.476;5.700;2023-05-08T11:59:11;34.28;;;21.85;;
58581;SDS011;44361;51.476;5.700;2023-05-08T12:01:37;26.85;;;18.83;;
58581;SDS011;44361;51.476;5.700;2023-05-08T12:04:04;26.73;;;19.80;;
58581;SDS011;44361;51.476;5.700;2023-05-08T12:06:34;30.13;;;20.98;;
58581;SDS011;44361;51.476;5.700;2023-05-08T12:09:02;27.23;;;20.33;;
58581;SDS011;44361;51.476;5.700;2023-05-08T12:11:33;29.55;;;19.58;;
58581;SDS011;44361;51.476;5.700;2023-05-08T12:13:59;26.85;;;19.25;;
58581;SDS011;44361;51.476;5.700;2023-05-08T12:16:24;25.60;;;18.40;;
58581;SDS011;44361;51.476;5.700;2023-05-08T12:18:50;26.20;;;19.35;;
58581;SDS011;44361;51.476;5.700;2023-05-08T12:21:17;30.27;;;20.30;;
58581;SDS011;44361;51.476;5.700;2023-05-08T12:24:05;29.45;;;20.38;;
58581;SDS011;44361;51.476;5.700;2023-05-08T12:26:35;31.02;;;20.58;;
58581;SDS011;44361;51.476;5.700;2023-05-08T12:29:04;32.85;;;22.00;;
58581;SDS011;44361;51.476;5.700;2023-05-08T12:31:31;36.03;;;23.30;;
58581;SDS011;44361;51.476;5.700;2023-05-08T12:33:59;38.92;;;24.25;;
58581;SDS011;44361;51.476;5.700;2023-05-08T12:36:27;40.03;;;24.80;;
58581;SDS011;44361;51.476;5.700;2023-05-08T12:39:07;43.38;;;25.08;;
58581;SDS011;44361;51.476;5.700;2023-05-08T12:41:34;38.97;;;24.67;;
58581;SDS011;44361;51.476;5.700;2023-05-08T12:44:14;35.67;;;22.90;;
58581;SDS011;44361;51.476;5.700;2023-05-08T12:46:48;38.17;;;23.70;;
58581;SDS011;44361;51.476;5.700;2023-05-08T12:49:21;36.42;;;23.90;;
58581;SDS011;44361;51.476;5.700;2023-05-08T12:52:04;34.15;;;22.95;;
58581;SDS011;44361;51.476;5.700;2023-05-08T12:54:46;34.03;;;21.70;;
58581;SDS011;44361;51.476;5.700;2023-05-08T12:57:13;36.33;;;22.05;;
58581;SDS011;44361;51.476;5.700;2023-05-08T12:59:43;34.42;;;22.13;;
58581;SDS011;44361;51.476;5.700;2023-05-08T13:02:19;33.70;;;22.10;;
58581;SDS011;44361;51.476;5.700;2023-05-08T13:04:47;36.75;;;24.17;;
58581;SDS011;44361;51.476;5.700;2023-05-08T13:07:18;37.75;;;21.38;;
58581;SDS011;44361;51.476;5.700;2023-05-08T13:09:59;31.50;;;21.15;;
58581;SDS011;44361;51.476;5.700;2023-05-08T13:12:28;37.58;;;22.77;;
58581;SDS011;44361;51.476;5.700;2023-05-08T13:14:54;35.47;;;21.60;;
58581;SDS011;44361;51.476;5.700;2023-05-08T13:17:19;40.35;;;23.55;;
58581;SDS011;44361;51.476;5.700;2023-05-08T13:19:45;33.90;;;21.30;;
58581;SDS011;44361;51.476;5.700;2023-05-08T13:22:11;34.80;;;21.90;;
58581;SDS011;44361;51.476;5.700;2023-05-08T13:24:36;40.15;;;22.73;;
58581;SDS011;44361;51.476;5.700;2023-05-08T13:27:02;40.22;;;22.77;;
58581;SDS011;44361;51.476;5.700;2023-05-08T13:29:28;35.00;;;22.25;;
58581;SDS011;44361;51.476;5.700;2023-05-08T13:31:53;33.75;;;20.65;;
58581;SDS011;44361;51.476;5.700;2023-05-08T13:34:19;32.92;;;20.88;;
58581;SDS011;44361;51.476;5.700;2023-05-08T13:36:44;32.50;;;20.35;;
58581;SDS011;44361;51.476;5.700;2023-05-08T13:39:10;32.28;;;19.42;;
58581;SDS011;44361;51.476;5.700;2023-05-08T13:41:36;32.53;;;20.35;;
58581;SDS011;44361;51.476;5.700;2023-05-08T13:44:01;31.75;;;20.13;;
58581;SDS011;44361;51.476;5.700;2023-05-08T13:46:27;30.38;;;20.02;;
58581;SDS011;44361;51.476;5.700;2023-05-08T13:48:52;33.55;;;19.77;;
58581;SDS011;44361;51.476;5.700;2023-05-08T13:51:18;32.90;;;20.75;;
58581;SDS011;44361;51.476;5.700;2023-05-08T13:53:43;30.13;;;18.95;;
58581;SDS011;44361;51.476;5.700;2023-05-08T13:56:09;30.00;;;18.85;;
58581;SDS011;44361;51.476;5.700;2023-05-08T13:58:35;29.48;;;18.60;;
58581;SDS011;44361;51.476;5.700;2023-05-08T14:01:00;29.42;;;17.98;;
58581;SDS011;44361;51.476;5.700;2023-05-08T14:03:26;28.30;;;18.27;;
58581;SDS011;44361;51.476;5.700;2023-05-08T14:05:51;25.95;;;16.67;;
58581;SDS011;44361;51.476;5.700;2023-05-08T14:08:17;26.88;;;18.23;;
58581;SDS011;44361;51.476;5.700;2023-05-08T14:10:42;23.08;;;16.10;;
58581;SDS011;44361;51.476;5.700;2023-05-08T14:13:08;24.75;;;15.18;;
58581;SDS011;44361;51.476;5.700;2023-05-08T14:15:33;22.42;;;14.93;;
58581;SDS011;44361;51.476;5.700;2023-05-08T14:18:01;23.20;;;15.10;;
58581;SDS011;44361;51.476;5.700;2023-05-08T14:20:26;25.55;;;16.55;;
58581;SDS011;44361;51.476;5.700;2023-05-08T14:22:52;28.05;;;15.55;;
58581;SDS011;44361;51.476;5.700;2023-05-08T14:25:17;22.98;;;14.65;;
58581;SDS011;44361;51.476;5.700;2023-05-08T14:27:43;25.13;;;15.30;;
58581;SDS011;44361;51.476;5.700;2023-05-08T14:30:08;20.35;;;13.18;;
58581;SDS011;44361;51.476;5.700;2023-05-08T14:32:34;20.92;;;13.88;;
58581;SDS011;44361;51.476;5.700;2023-05-08T14:35:00;20.83;;;13.13;;
58581;SDS011;44361;51.476;5.700;2023-05-08T14:37:25;18.77;;;13.13;;
58581;SDS011;44361;51.476;5.700;2023-05-08T14:39:51;20.52;;;12.20;;
58581;SDS011;44361;51.476;5.700;2023-05-08T14:42:18;15.07;;;10.45;;
58581;SDS011;44361;51.476;5.700;2023-05-08T14:44:43;14.93;;;10.45;;
58581;SDS011;44361;51.476;5.700;2023-05-08T14:47:09;14.88;;;9.88;;
58581;SDS011;44361;51.476;5.700;2023-05-08T14:49:35;14.05;;;10.13;;
58581;SDS011;44361;51.476;5.700;2023-05-08T14:52:00;15.65;;;10.38;;
58581;SDS011;44361;51.476;5.700;2023-05-08T14:54:26;14.80;;;10.65;;
58581;SDS011;44361;51.476;5.700;2023-05-08T14:56:52;17.55;;;10.68;;
58581;SDS011;44361;51.476;5.700;2023-05-08T14:59:17;15.45;;;10.57;;
58581;SDS011;44361;51.476;5.700;2023-05-08T15:01:43;17.13;;;10.90;;
58581;SDS011;44361;51.476;5.700;2023-05-08T15:04:09;16.08;;;10.15;;
58581;SDS011;44361;51.476;5.700;2023-05-08T15:06:35;15.43;;;10.15;;
58581;SDS011;44361;51.476;5.700;2023-05-08T15:09:01;15.07;;;9.30;;